Palmetto, Louisiana
Current Conditions -  °F | °C
As of 3:35 AM on Saturday 29 Nov 2014 (Local Time) from KOPL Reporting Station
Clear Clear  
Wind Chill: 50°   Ceiling: Unl
Heat Index: 50°   Visibility: 10mi
Dew Point: 49°   Wind: 7mph
Humidity: 95%   Direction: 150°SSE
Pressure: 30.15"   Gusts: NA
Location:  30.72°N, 91.91°W
Report Text: KOPL 290935Z AUTO 15006KT 10SM CLR 10/09 A3015 RMK AO2 T01000092
Loading
Personal Weather Stations






























Interactive Weather Map New forecast layout! Learn more

10-Day Weather Forecast

Advertisements
Track Severe Weather on mobile